Time;durP1;ratioP1;P1;durP2;ratioP2;P2;SDS_P1;SDS_P2;PMS_P1;PMS_P2;Temp;Humidity;BMP_temperature;BMP_pressure;BME280_temperature;BME280_humidity;BME280_pressure;Samples;Min_cycle;Max_cycle;Signal;HPM_P1;HPM_P2
2023/06/06 00:01:49;;;;;;;;;;;16.50;48.20;;;12.56;88.04;95387.19;5011260;28;19913;-52
2023/06/06 00:04:15;;;;;;;;;;;16.50;48.30;;;12.64;88.49;95394.59;5010661;28;19920;-51
2023/06/06 00:06:44;;;;;;;;;;;16.50;48.40;;;12.68;89.04;95392.16;5011674;28;19909;-54
2023/06/06 00:09:13;;;;;;;;;;;16.60;48.60;;;12.73;89.18;95392.91;5011459;28;19940;-53
2023/06/06 00:11:39;;;;;;;;;;;16.60;48.70;;;12.81;89.09;95382.69;5010345;28;19999;-52
2023/06/06 00:14:09;;;;;;;;;;;16.60;48.80;;;12.88;89.22;95383.94;5009974;28;19917;-54
2023/06/06 00:16:35;;;;;;;;;;;16.70;49.00;;;12.97;89.28;95378.75;5005159;28;20383;-52
2023/06/06 00:19:03;;;;;;;;;;;16.70;49.10;;;13.03;89.84;95382.19;5008647;28;19955;-52
2023/06/06 00:21:32;;;;;;;;;;;16.70;49.10;;;13.08;90.53;95380.25;5011141;28;19913;-51
2023/06/06 00:23:59;;;;;;;;;;;16.80;49.20;;;13.18;90.56;95384.69;5010553;28;19909;-51
2023/06/06 00:26:26;;;;;;;;;;;16.90;49.30;;;13.24;90.55;95377.41;5011435;28;19909;-51
2023/06/06 00:28:53;;;;;;;;;;;16.90;49.40;;;13.26;90.72;95380.63;5010685;28;20334;-54
2023/06/06 00:31:19;;;;;;;;;;;17.00;49.50;;;13.30;91.12;95387.00;5011182;28;19913;-50
2023/06/06 00:33:44;;;;;;;;;;;17.00;49.50;;;13.34;91.09;95386.13;5011450;28;20594;-51
2023/06/06 00:36:11;;;;;;;;;;;17.10;49.60;;;13.41;90.80;95391.13;5004101;28;19913;-50
2023/06/06 00:38:37;;;;;;;;;;;17.10;49.70;;;13.44;90.58;95385.19;5011691;28;19999;-50
2023/06/06 00:41:03;;;;;;;;;;;17.10;49.60;;;13.46;90.12;95401.75;5011222;28;20011;-50
2023/06/06 00:43:28;;;;;;;;;;;17.20;49.70;;;13.49;89.58;95398.50;5014904;28;19913;-54
2023/06/06 00:45:55;;;;;;;;;;;17.20;49.70;;;13.43;88.74;95407.69;5015202;28;19940;-54
2023/06/06 00:48:23;;;;;;;;;;;17.30;49.70;;;13.32;88.81;95404.34;5011710;28;19909;-55
2023/06/06 00:50:50;;;;;;;;;;;17.20;49.50;;;13.24;89.16;95404.16;5014788;28;19913;-51
2023/06/06 00:53:16;;;;;;;;;;;17.20;49.50;;;13.19;88.96;95404.97;5028343;28;19913;-51
2023/06/06 00:55:43;;;;;;;;;;;17.20;49.50;;;13.10;88.84;95412.03;5029902;28;19948;-54
2023/06/06 00:58:12;;;;;;;;;;;17.10;49.50;;;13.04;88.92;95411.31;5012076;28;20000;-49
2023/06/06 01:00:40;;;;;;;;;;;17.10;49.60;;;12.94;88.11;95411.41;5029736;28;19916;-55
2023/06/06 01:03:09;;;;;;;;;;;17.00;49.60;;;12.83;88.03;95410.72;5014085;28;19909;-49
2023/06/06 01:05:39;;;;;;;;;;;16.90;49.60;;;12.76;87.26;95407.59;5013730;28;19909;-50
2023/06/06 01:08:06;;;;;;;;;;;16.90;49.60;;;12.66;87.38;95411.16;5013465;28;19909;-51
2023/06/06 01:10:36;;;;;;;;;;;16.80;49.60;;;12.59;87.66;95405.31;5009232;28;19949;-50
2023/06/06 01:13:35;;;;;;;;;;;16.80;49.60;;;12.52;88.82;95406.75;5028898;28;20008;-49
2023/06/06 01:16:13;;;;;;;;;;;16.70;49.60;;;12.45;87.49;95413.22;5014010;28;19920;-48
2023/06/06 01:18:41;;;;;;;;;;;16.60;49.70;;;12.39;88.99;95418.88;5008877;28;19924;-51
2023/06/06 01:21:09;;;;;;;;;;;16.50;49.70;;;12.32;89.23;95418.41;5014149;28;19909;-49
2023/06/06 01:23:36;;;;;;;;;;;16.50;49.80;;;12.26;89.23;95417.63;5016833;28;19914;-51
2023/06/06 01:26:07;;;;;;;;;;;16.40;49.80;;;12.19;89.72;95419.81;5029847;28;20012;-51
2023/06/06 01:28:33;;;;;;;;;;;16.30;49.80;;;12.11;89.17;95431.88;5013454;28;19932;-54
2023/06/06 01:31:00;;;;;;;;;;;16.30;49.90;;;12.02;89.30;95426.34;5014379;28;19917;-50
2023/06/06 01:33:44;;;;;;;;;;;16.20;50.00;;;11.94;90.64;95426.13;5013869;28;19909;-48
2023/06/06 01:36:39;;;;;;;;;;;16.10;50.00;;;11.84;90.42;95420.81;5021501;28;19920;-51
2023/06/06 01:39:15;;;;;;;;;;;16.00;50.20;;;11.74;91.21;95425.13;5016808;28;20291;-52
2023/06/06 01:41:42;;;;;;;;;;;15.90;50.20;;;11.64;92.60;95424.41;5017468;28;19944;-48
2023/06/06 01:44:11;;;;;;;;;;;15.80;50.30;;;11.51;94.64;95431.94;5030291;28;19970;-52
2023/06/06 01:46:39;;;;;;;;;;;15.80;50.40;;;11.48;95.81;95434.34;5028941;28;20391;-49
2023/06/06 01:49:06;;;;;;;;;;;15.70;50.60;;;11.45;95.15;95430.34;5028918;28;19909;-52
2023/06/06 01:51:32;;;;;;;;;;;15.60;50.60;;;11.35;96.67;95433.06;5012866;28;20482;-50
2023/06/06 01:53:58;;;;;;;;;;;15.60;50.80;;;11.31;96.24;95424.81;5012839;28;19915;-48
2023/06/06 01:56:26;;;;;;;;;;;15.50;50.90;;;11.21;96.98;95430.16;5013331;28;19936;-49
2023/06/06 01:58:52;;;;;;;;;;;15.50;50.90;;;11.14;98.10;95434.19;5005509;28;19921;-49
2023/06/06 02:01:18;;;;;;;;;;;15.40;51.00;;;11.14;97.73;95434.19;5011074;28;19917;-50
2023/06/06 02:03:44;;;;;;;;;;;15.30;51.10;;;11.04;97.49;95441.16;5013441;28;19916;-50
2023/06/06 02:06:10;;;;;;;;;;;15.30;51.20;;;10.99;97.03;95438.50;4999875;28;19909;-49
2023/06/06 02:08:36;;;;;;;;;;;15.20;51.30;;;10.89;97.47;95446.50;5013395;28;19909;-49
2023/06/06 02:11:01;;;;;;;;;;;15.20;51.40;;;10.71;99.80;95441.75;5011763;28;19980;-48
2023/06/06 02:13:28;;;;;;;;;;;15.10;51.40;;;10.60;100.00;95447.09;5013677;28;19909;-50
2023/06/06 02:15:54;;;;;;;;;;;15.00;51.50;;;10.67;99.82;95441.47;5013414;28;19936;-49
2023/06/06 02:18:20;;;;;;;;;;;15.00;51.60;;;10.64;100.00;95440.16;5011989;28;20376;-50
2023/06/06 02:20:46;;;;;;;;;;;14.90;51.70;;;10.63;100.00;95451.09;5013146;28;19913;-49
2023/06/06 02:23:12;;;;;;;;;;;14.80;51.80;;;10.60;100.00;95451.63;5011755;28;19909;-52
2023/06/06 02:25:37;;;;;;;;;;;14.80;52.00;;;10.58;100.00;95451.06;5012775;28;20382;-50
2023/06/06 02:28:04;;;;;;;;;;;14.80;52.10;;;10.56;100.00;95455.84;5012787;28;19963;-48
2023/06/06 02:30:30;;;;;;;;;;;14.70;52.20;;;10.52;100.00;95455.59;5004833;28;19920;-49
2023/06/06 02:32:57;;;;;;;;;;;14.70;52.30;;;10.47;100.00;95455.63;5012446;28;19909;-49
2023/06/06 02:35:23;;;;;;;;;;;14.60;53.00;;;10.40;100.00;95463.88;5006494;28;20356;-50
2023/06/06 02:37:49;;;;;;;;;;;14.60;52.50;;;10.38;100.00;95457.22;5012633;28;20348;-50
2023/06/06 02:40:15;;;;;;;;;;;14.60;52.50;;;10.34;100.00;95453.47;5011397;28;19963;-48
2023/06/06 02:42:40;;;;;;;;;;;14.50;52.60;;;10.27;100.00;95458.25;5012212;28;20295;-51
2023/06/06 02:45:09;;;;;;;;;;;14.50;52.80;;;10.26;100.00;95456.63;5012749;28;19909;-49
2023/06/06 02:47:35;;;;;;;;;;;14.50;52.80;;;10.23;100.00;95460.63;5011517;28;19911;-51
2023/06/06 02:50:03;;;;;;;;;;;14.50;52.90;;;10.18;100.00;95456.09;5012414;28;19947;-49
2023/06/06 02:52:31;;;;;;;;;;;14.40;52.90;;;10.16;100.00;95455.56;5010818;28;20387;-51
2023/06/06 02:54:57;;;;;;;;;;;14.40;53.00;;;10.16;100.00;95454.78;5011872;28;20379;-49
2023/06/06 02:57:23;;;;;;;;;;;14.40;53.10;;;10.15;100.00;95453.97;5012401;28;19909;-49
2023/06/06 02:59:49;;;;;;;;;;;14.30;53.20;;;10.14;100.00;95455.00;5006264;28;19909;-51
2023/06/06 03:02:15;;;;;;;;;;;14.30;53.30;;;10.13;100.00;95461.41;5005381;28;20345;-49
2023/06/06 03:04:45;;;;;;;;;;;14.30;53.40;;;10.09;100.00;95457.69;5004018;28;19996;-53
2023/06/06 03:07:12;;;;;;;;;;;14.30;53.50;;;10.06;100.00;95454.72;5005732;28;19931;-49
2023/06/06 03:09:39;;;;;;;;;;;14.30;53.60;;;10.00;100.00;95461.94;5012390;28;19966;-49
2023/06/06 03:12:05;;;;;;;;;;;14.20;53.60;;;9.95;100.00;95464.56;5007437;28;20299;-51
2023/06/06 03:14:31;;;;;;;;;;;14.20;53.60;;;9.92;100.00;95460.56;5012017;28;19916;-51
2023/06/06 03:19:32;;;;;;;;;;;14.20;53.80;;;9.91;100.00;95468.81;5007806;28;19920;-50
2023/06/06 03:21:59;;;;;;;;;;;14.10;53.80;;;9.86;100.00;95471.47;5007247;28;19968;-55
2023/06/06 03:24:25;;;;;;;;;;;14.10;53.90;;;9.83;100.00;95472.00;4998606;28;19916;-53
2023/06/06 03:26:53;;;;;;;;;;;14.10;54.00;;;9.79;100.00;95474.38;5012035;28;20359;-52
2023/06/06 03:29:19;;;;;;;;;;;14.10;54.10;;;9.79;100.00;95469.06;5003600;28;19956;-53
2023/06/06 03:31:48;;;;;;;;;;;14.00;54.10;;;9.80;100.00;95475.97;5012776;28;19909;-53
2023/06/06 03:34:14;;;;;;;;;;;14.10;54.20;;;9.80;100.00;95475.97;5011279;28;20333;-53
2023/06/06 03:36:40;;;;;;;;;;;14.00;54.20;;;9.80;100.00;95478.63;5012544;28;19952;-50
2023/06/06 03:39:06;;;;;;;;;;;14.00;54.30;;;9.81;100.00;95482.06;5012328;28;19940;-50
2023/06/06 03:41:32;;;;;;;;;;;14.00;54.30;;;9.85;100.00;95486.63;5011508;28;20402;-55
2023/06/06 03:44:02;;;;;;;;;;;14.00;54.40;;;9.87;100.00;95484.53;4994908;28;19984;-53
2023/06/06 03:46:28;;;;;;;;;;;14.00;54.50;;;9.89;100.00;95487.69;5008847;28;19917;-52
2023/06/06 03:48:54;;;;;;;;;;;14.10;54.60;;;10.01;100.00;95486.69;5008574;28;19962;-52
2023/06/06 03:51:20;;;;;;;;;;;14.10;54.60;;;10.09;100.00;95483.47;5012039;28;19912;-51
2023/06/06 03:53:46;;;;;;;;;;;14.10;54.70;;;10.15;100.00;95487.75;4997172;28;19921;-55
2023/06/06 03:56:12;;;;;;;;;;;14.20;54.80;;;10.23;100.00;95491.78;5012279;28;20383;-49
2023/06/06 03:58:38;;;;;;;;;;;14.30;54.90;;;10.30;100.00;95493.13;4986771;28;19913;-55
2023/06/06 04:01:04;;;;;;;;;;;14.30;54.90;;;10.50;100.00;95492.38;5006295;28;19971;-55
2023/06/06 04:03:36;;;;;;;;;;;14.40;55.00;;;10.72;100.00;95489.44;5000829;28;19909;-53
2023/06/06 04:06:07;;;;;;;;;;;14.50;55.20;;;10.93;100.00;95486.75;5010509;28;19963;-55
2023/06/06 04:08:35;;;;;;;;;;;14.60;55.20;;;11.16;100.00;95491.50;5011322;28;19944;-48
2023/06/06 04:11:01;;;;;;;;;;;14.80;55.30;;;11.34;100.00;95485.59;5004111;28;19915;-48
2023/06/06 04:13:27;;;;;;;;;;;14.90;55.30;;;11.50;100.00;95489.03;4999706;28;19909;-53
2023/06/06 04:15:52;;;;;;;;;;;15.10;55.40;;;11.70;100.00;95488.13;4995961;28;19917;-52
2023/06/06 04:18:18;;;;;;;;;;;15.30;55.30;;;11.92;100.00;95481.66;4996408;28;19971;-49
2023/06/06 04:20:44;;;;;;;;;;;15.40;55.20;;;12.04;100.00;95487.47;5015208;28;20274;-56
2023/06/06 04:23:10;;;;;;;;;;;15.60;55.10;;;12.12;100.00;95486.06;5013303;28;19916;-51
2023/06/06 04:25:36;;;;;;;;;;;15.80;55.10;;;12.25;100.00;95485.47;5015169;28;19915;-56
2023/06/06 04:28:02;;;;;;;;;;;15.90;54.90;;;12.38;99.18;95486.69;5015211;28;19917;-54
2023/06/06 04:30:29;;;;;;;;;;;16.00;54.80;;;12.51;98.63;95483.44;5014055;28;19962;-54
2023/06/06 04:32:56;;;;;;;;;;;16.20;55.40;;;12.64;97.74;95487.34;5014655;28;19909;-54
2023/06/06 04:35:22;;;;;;;;;;;16.40;54.80;;;12.77;97.17;95492.03;5006623;28;19917;-56
2023/06/06 04:37:50;;;;;;;;;;;16.50;54.70;;;12.92;96.79;95501.81;5011658;28;19953;-56
2023/06/06 04:40:16;;;;;;;;;;;16.70;54.60;;;13.07;95.39;95499.00;5013200;28;19924;-56
2023/06/06 04:42:42;;;;;;;;;;;16.80;54.40;;;13.18;94.42;95500.47;5004364;28;20110;-51
2023/06/06 04:45:09;;;;;;;;;;;16.90;54.30;;;13.33;93.90;95507.59;5014713;28;19909;-55
2023/06/06 04:47:37;;;;;;;;;;;17.10;54.30;;;13.49;92.92;95505.53;5014083;28;20275;-52
2023/06/06 04:50:04;;;;;;;;;;;17.30;54.20;;;13.59;91.49;95502.75;5014819;28;19917;-48
2023/06/06 04:52:30;;;;;;;;;;;17.40;54.10;;;13.74;90.54;95507.13;5011471;28;19935;-54
2023/06/06 04:54:55;;;;;;;;;;;17.60;54.00;;;13.93;90.29;95509.84;5011497;28;19916;-49
2023/06/06 04:57:23;;;;;;;;;;;17.70;53.90;;;14.04;89.31;95508.66;5014888;28;20000;-49
2023/06/06 04:59:52;;;;;;;;;;;17.90;53.80;;;14.18;88.23;95513.28;5013555;28;20008;-51
2023/06/06 05:02:22;;;;;;;;;;;18.00;53.60;;;14.28;87.58;95513.13;5014141;28;19909;-51
2023/06/06 05:04:54;;;;;;;;;;;18.20;53.60;;;14.43;86.72;95512.91;5013410;28;19913;-54
2023/06/06 05:07:24;;;;;;;;;;;18.40;53.40;;;14.48;85.83;95517.44;5014857;28;19916;-52
2023/06/06 05:09:55;;;;;;;;;;;18.60;53.20;;;14.60;85.50;95517.00;4997646;28;19913;-53
2023/06/06 05:12:22;;;;;;;;;;;18.80;53.00;;;14.60;84.98;95514.31;5012803;28;19997;-49
2023/06/06 05:14:48;;;;;;;;;;;18.90;52.90;;;14.68;84.73;95522.50;5014244;28;19917;-52
2023/06/06 05:17:23;;;;;;;;;;;19.10;52.70;;;14.81;84.85;95519.06;5013216;28;19913;-51
2023/06/06 05:19:49;;;;;;;;;;;19.20;52.50;;;14.99;84.29;95517.44;5014414;28;19923;-51
2023/06/06 05:22:16;;;;;;;;;;;19.40;52.40;;;15.09;82.99;95513.78;5012744;28;20039;-53
2023/06/06 05:24:43;;;;;;;;;;;19.50;52.20;;;15.18;82.52;95512.03;5014145;28;19912;-53
2023/06/06 05:27:09;;;;;;;;;;;19.70;52.10;;;15.27;82.01;95512.94;5012985;28;20019;-55
2023/06/06 05:29:35;;;;;;;;;;;19.80;51.90;;;15.39;81.83;95517.84;5013273;28;20015;-52
2023/06/06 05:32:02;;;;;;;;;;;20.00;51.70;;;15.50;81.71;95511.16;5012518;28;19915;-55
2023/06/06 05:34:27;;;;;;;;;;;20.10;51.60;;;15.52;81.26;95520.84;5010598;28;19929;-54
2023/06/06 05:36:53;;;;;;;;;;;20.30;51.40;;;15.60;80.93;95517.44;5013884;28;19916;-55
2023/06/06 05:39:19;;;;;;;;;;;20.40;51.20;;;15.61;80.89;95519.06;5014471;28;19909;-53
2023/06/06 05:41:47;;;;;;;;;;;20.50;51.10;;;15.65;81.51;95528.09;5009968;28;20283;-50
2023/06/06 05:44:13;;;;;;;;;;;20.70;51.00;;;15.93;80.11;95524.34;5007993;28;20256;-50
2023/06/06 05:46:39;;;;;;;;;;;20.80;50.80;;;15.94;80.00;95525.94;5013427;28;19915;-51
2023/06/06 05:49:05;;;;;;;;;;;21.00;50.70;;;16.18;79.02;95525.72;5014269;28;20325;-51
2023/06/06 05:51:31;;;;;;;;;;;21.10;50.60;;;16.23;78.11;95524.78;5014306;28;19909;-51
2023/06/06 05:53:57;;;;;;;;;;;21.30;50.40;;;16.40;77.58;95519.59;5011132;28;19915;-49
2023/06/06 05:56:23;;;;;;;;;;;21.50;50.30;;;16.56;77.08;95527.31;5014308;28;19920;-51
2023/06/06 05:58:52;;;;;;;;;;;21.60;50.10;;;16.61;76.83;95529.91;5008616;28;20269;-51
2023/06/06 06:01:19;;;;;;;;;;;21.80;50.00;;;16.82;76.10;95522.97;5001566;28;19916;-49
2023/06/06 06:03:48;;;;;;;;;;;21.90;49.70;;;17.02;75.65;95524.38;5014252;28;19916;-49
2023/06/06 06:06:14;;;;;;;;;;;22.10;49.60;;;17.08;73.95;95531.22;5013069;28;19909;-51
2023/06/06 06:08:40;;;;;;;;;;;22.20;49.40;;;17.12;72.95;95531.41;5014114;28;20287;-52
2023/06/06 06:11:07;;;;;;;;;;;22.40;49.40;;;17.08;73.88;95533.13;5011816;28;19909;-51
2023/06/06 06:13:34;;;;;;;;;;;22.50;48.90;;;17.31;73.07;95541.97;5013817;28;19952;-51
2023/06/06 06:16:03;;;;;;;;;;;22.70;48.80;;;17.35;72.38;95527.56;5013356;28;26669;-51
2023/06/06 06:18:28;;;;;;;;;;;22.80;48.60;;;17.25;72.47;95538.59;5012731;28;20284;-51
2023/06/06 06:20:54;;;;;;;;;;;23.00;48.40;;;17.35;72.70;95540.25;5013881;28;19913;-51
2023/06/06 06:23:20;;;;;;;;;;;23.10;48.10;;;17.47;72.03;95531.59;5003910;28;20008;-52
2023/06/06 06:25:46;;;;;;;;;;;23.30;48.00;;;17.74;70.89;95541.41;5013708;28;19909;-56
2023/06/06 06:28:23;;;;;;;;;;;23.40;47.80;;;17.92;69.79;95540.34;5013044;28;19909;-57
2023/06/06 06:30:49;;;;;;;;;;;23.60;47.70;;;18.02;69.69;95548.19;5003586;28;19912;-57
2023/06/06 06:33:16;;;;;;;;;;;23.70;47.30;;;18.16;68.26;95550.75;5013688;28;20014;-57
2023/06/06 06:35:45;;;;;;;;;;;23.80;47.30;;;18.32;67.99;95547.59;5012313;28;19920;-56
2023/06/06 06:38:11;;;;;;;;;;;24.00;47.00;;;18.47;67.38;95553.34;5013674;28;19916;-57
2023/06/06 06:40:37;;;;;;;;;;;24.10;46.80;;;18.67;66.73;95560.03;5005693;28;19917;-57
2023/06/06 06:43:03;;;;;;;;;;;24.30;46.60;;;18.84;65.75;95551.19;5011758;28;19913;-57
2023/06/06 06:45:28;;;;;;;;;;;24.40;46.40;;;18.71;66.45;95554.81;5013539;28;20370;-54
2023/06/06 06:47:54;;;;;;;;;;;24.60;46.20;;;18.91;65.69;95562.28;5012416;28;20387;-55
2023/06/06 06:50:20;;;;;;;;;;;24.80;46.00;;;18.83;65.55;95557.69;5012991;28;20261;-57
2023/06/06 06:52:46;;;;;;;;;;;24.90;45.80;;;18.78;66.22;95557.06;5012334;28;19909;-57
2023/06/06 06:55:11;;;;;;;;;;;25.00;45.50;;;19.03;65.52;95550.88;5013141;28;19948;-57
2023/06/06 06:57:39;;;;;;;;;;;25.20;45.40;;;19.36;64.43;95558.44;5013333;28;20347;-55
2023/06/06 07:00:18;;;;;;;;;;;25.30;45.20;;;19.70;63.04;95559.50;5012346;28;20367;-55
2023/06/06 07:02:44;;;;;;;;;;;25.50;45.10;;;19.85;62.08;95556.25;5012844;28;19909;-53
2023/06/06 07:05:11;;;;;;;;;;;25.70;44.90;;;20.02;61.23;95558.88;5012571;28;19983;-57
2023/06/06 07:07:52;;;;;;;;;;;25.80;44.60;;;20.32;60.61;95551.56;5012859;28;19909;-57
2023/06/06 07:10:20;;;;;;;;;;;26.00;44.50;;;20.63;59.55;95553.16;5012014;28;19916;-57
2023/06/06 07:12:51;;;;;;;;;;;26.20;44.30;;;20.69;58.95;95551.84;5012773;28;20007;-57
2023/06/06 07:15:19;;;;;;;;;;;26.50;44.10;;;20.77;58.26;95550.97;5012565;28;19917;-57
2023/06/06 07:17:50;;;;;;;;;;;26.70;43.90;;;20.87;58.37;95563.34;4993958;28;19924;-57
2023/06/06 07:20:20;;;;;;;;;;;26.90;43.60;;;20.65;57.76;95563.63;5013019;28;19940;-57
2023/06/06 07:22:46;;;;;;;;;;;27.00;43.40;;;20.65;58.73;95558.22;5011607;28;19952;-54
2023/06/06 07:25:12;;;;;;;;;;;27.10;43.10;;;20.93;58.06;95553.91;5012824;28;20406;-57
2023/06/06 07:27:38;;;;;;;;;;;27.20;42.90;;;20.92;57.67;95552.28;5012367;28;19949;-57
2023/06/06 07:30:12;;;;;;;;;;;27.40;42.70;;;21.16;57.64;95556.25;5007926;28;19952;-55
2023/06/06 07:32:43;;;;;;;;;;;27.50;42.50;;;21.19;56.47;95555.59;4995060;28;20421;-56
2023/06/06 07:35:16;;;;;;;;;;;27.60;42.30;;;21.27;55.87;95557.41;5008959;28;19920;-57
2023/06/06 07:37:42;;;;;;;;;;;27.70;42.00;;;21.59;56.02;95557.75;5012615;28;20436;-56
2023/06/06 07:40:11;;;;;;;;;;;27.90;41.90;;;21.87;54.79;95552.47;5011497;28;19916;-57
2023/06/06 07:42:41;;;;;;;;;;;28.00;41.70;;;22.20;53.77;95559.78;5006376;28;19909;-55
2023/06/06 07:45:08;;;;;;;;;;;28.20;41.60;;;21.82;55.02;95556.22;5011370;28;20283;-56
2023/06/06 07:47:34;;;;;;;;;;;28.40;41.40;;;22.18;54.81;95555.47;5011167;28;19909;-57
2023/06/06 07:50:00;;;;;;;;;;;28.60;41.20;;;22.38;53.23;95544.84;5012103;28;19909;-55
2023/06/06 07:52:25;;;;;;;;;;;28.80;41.00;;;22.02;54.07;95549.09;5010250;28;19919;-53
2023/06/06 07:54:51;;;;;;;;;;;28.90;40.60;;;22.00;53.34;95550.56;5012021;28;20024;-57
2023/06/06 07:57:19;;;;;;;;;;;29.00;40.40;;;22.25;53.35;95548.69;5012344;28;19913;-57
2023/06/06 07:59:46;;;;;;;;;;;29.10;40.20;;;22.63;52.82;95551.81;5006589;28;19909;-57
2023/06/06 08:02:14;;;;;;;;;;;29.20;40.10;;;22.97;51.90;95557.06;5009284;28;19909;-55
2023/06/06 08:04:42;;;;;;;;;;;29.40;40.10;;;23.19;51.17;95559.28;5010137;28;19909;-57
2023/06/06 08:07:09;;;;;;;;;;;29.60;39.90;;;23.43;49.91;95544.78;5004367;28;19909;-54
2023/06/06 08:09:36;;;;;;;;;;;29.70;39.70;;;23.23;50.39;95556.66;4996381;28;19935;-56
2023/06/06 08:12:05;;;;;;;;;;;29.80;39.20;;;23.30;50.08;95554.13;5006271;28;20322;-54
2023/06/06 08:14:33;;;;;;;;;;;29.90;39.00;;;23.42;50.71;95547.84;5011449;28;20257;-56
2023/06/06 08:16:59;;;;;;;;;;;30.00;38.80;;;23.69;49.16;95554.38;5010291;28;19940;-57
2023/06/06 08:19:26;;;;;;;;;;;30.10;38.70;;;23.33;49.99;95558.88;5010991;28;19960;-57
2023/06/06 08:21:52;;;;;;;;;;;30.30;38.60;;;23.57;49.63;95552.53;5011303;28;19956;-55
2023/06/06 08:24:17;;;;;;;;;;;30.40;38.40;;;23.54;49.18;95548.56;4981248;28;19964;-56
2023/06/06 08:26:43;;;;;;;;;;;30.40;38.10;;;23.60;48.96;95554.56;5011262;28;19915;-55
2023/06/06 08:29:09;;;;;;;;;;;30.50;37.90;;;23.69;48.91;95557.94;5010250;28;19936;-58
2023/06/06 08:31:35;;;;;;;;;;;30.60;37.80;;;23.89;48.06;95558.81;5011368;28;20286;-54
2023/06/06 08:34:01;;;;;;;;;;;30.60;37.70;;;23.64;50.00;95546.47;5010679;28;19909;-56
2023/06/06 08:36:27;;;;;;;;;;;30.70;37.50;;;23.92;49.25;95554.59;5007607;28;20340;-52
2023/06/06 08:38:53;;;;;;;;;;;30.80;37.40;;;24.12;48.42;95558.19;4997376;28;19955;-57
2023/06/06 08:41:20;;;;;;;;;;;30.90;37.30;;;24.40;47.19;95552.63;5010136;28;19909;-54
2023/06/06 08:43:47;;;;;;;;;;;31.00;37.20;;;24.28;47.35;95550.78;4993672;28;20525;-57
2023/06/06 08:46:15;;;;;;;;;;;31.20;36.90;;;24.48;47.46;95551.69;5011000;28;19917;-52
2023/06/06 08:48:43;;;;;;;;;;;31.20;36.70;;;24.62;47.13;95551.22;5010952;28;19915;-55
2023/06/06 08:51:11;;;;;;;;;;;31.30;36.50;;;25.02;46.44;95559.06;5010868;28;19909;-55
2023/06/06 08:53:38;;;;;;;;;;;31.50;36.60;;;25.34;46.03;95551.56;5012916;28;20274;-53
2023/06/06 08:56:08;;;;;;;;;;;31.70;36.40;;;25.03;44.90;95548.97;5010917;28;19920;-56
2023/06/06 08:58:36;;;;;;;;;;;31.80;36.20;;;25.27;45.15;95545.97;5008979;28;19919;-55
2023/06/06 09:01:02;;;;;;;;;;;31.90;36.00;;;25.21;44.86;95541.97;5014836;28;19913;-53
2023/06/06 09:03:31;;;;;;;;;;;32.00;35.80;;;25.38;44.95;95552.44;5010463;28;19918;-57
2023/06/06 09:06:00;;;;;;;;;;;32.10;35.60;;;25.60;44.04;95540.00;5005433;28;19999;-53
2023/06/06 09:08:26;;;;;;;;;;;32.30;36.20;;;25.66;44.08;95540.44;5014553;28;20007;-56
2023/06/06 09:10:52;;;;;;;;;;;32.40;35.20;;;25.79;43.39;95535.63;5008884;28;19909;-57
2023/06/06 09:13:18;;;;;;;;;;;32.50;35.00;;;25.84;43.89;95543.53;5012201;28;19916;-57
2023/06/06 09:15:47;;;;;;;;;;;32.60;35.00;;;25.90;43.37;95535.84;4996687;28;19959;-56
2023/06/06 09:18:15;;;;;;;;;;;32.70;34.80;;;25.45;43.88;95543.59;5006179;23;19953;-50
2023/06/06 09:20:42;;;;;;;;;;;32.80;34.60;;;25.05;45.15;95531.13;4994092;28;19913;-56
2023/06/06 09:23:14;;;;;;;;;;;32.80;34.50;;;25.69;43.55;95536.22;4989839;28;19956;-54
2023/06/06 09:25:47;;;;;;;;;;;32.90;34.40;;;25.88;41.04;95538.13;4985656;28;19910;-56
2023/06/06 09:28:13;;;;;;;;;;;33.00;34.30;;;26.01;41.77;95536.78;4986877;28;19909;-53
2023/06/06 09:30:39;;;;;;;;;;;33.10;34.00;;;25.68;38.12;95531.94;4975058;28;19932;-51
2023/06/06 09:33:05;;;;;;;;;;;33.10;34.30;;;25.46;39.55;95534.25;4974830;28;19914;-49
2023/06/06 09:35:43;;;;;;;;;;;33.20;33.40;;;25.73;39.43;95537.88;4964321;28;19986;-52
2023/06/06 09:38:16;;;;;;;;;;;33.20;33.10;;;26.15;38.02;95533.53;4973239;28;19969;-54
2023/06/06 09:40:52;;;;;;;;;;;33.30;33.10;;;25.91;39.72;95535.47;4970206;28;19960;-52
2023/06/06 09:43:26;;;;;;;;;;;33.30;32.90;;;25.92;39.23;95525.34;4986923;28;19945;-51
2023/06/06 09:45:58;;;;;;;;;;;33.40;32.70;;;25.87;38.31;95529.16;4975103;28;19909;-53
2023/06/06 09:48:29;;;;;;;;;;;33.40;32.40;;;26.05;38.67;95524.00;4965817;28;19952;-52
2023/06/06 09:50:56;;;;;;;;;;;33.40;32.10;;;25.57;35.58;95505.25;4983432;28;20395;-48
2023/06/06 09:53:30;;;;;;;;;;;33.50;32.00;;;24.86;38.99;95526.44;4961285;28;19952;-53
2023/06/06 09:56:04;;;;;;;;;;;33.40;31.60;;;25.51;39.71;95525.81;4973022;28;19920;-50
2023/06/06 09:58:34;;;;;;;;;;;33.40;31.50;;;25.54;38.89;95519.63;4972861;28;20005;-51
2023/06/06 10:01:02;;;;;;;;;;;33.40;31.50;;;25.60;37.90;95517.34;4974793;28;19910;-52
2023/06/06 10:03:30;;;;;;;;;;;33.40;31.60;;;24.97;38.07;95518.47;4974437;28;19910;-54
2023/06/06 10:05:56;;;;;;;;;;;33.40;31.40;;;24.81;41.32;95517.75;4981511;28;19913;-50
2023/06/06 10:08:24;;;;;;;;;;;33.50;31.20;;;25.42;39.66;95513.56;4973815;28;20361;-56
2023/06/06 10:10:50;;;;;;;;;;;33.40;31.10;;;26.07;38.68;95511.59;4968665;28;19910;-56
2023/06/06 10:13:22;;;;;;;;;;;33.50;31.10;;;25.79;36.41;95524.69;4968330;28;20000;-53
2023/06/06 10:15:52;;;;;;;;;;;33.60;31.00;;;26.09;35.91;95511.19;4974228;28;20321;-52
2023/06/06 10:18:19;;;;;;;;;;;33.60;30.90;;;25.84;32.11;95510.78;4970826;28;19917;-56
2023/06/06 10:20:46;;;;;;;;;;;33.70;30.50;;;25.17;33.88;95500.25;4973879;28;20571;-55
2023/06/06 10:23:13;;;;;;;;;;;33.70;29.90;;;24.15;34.84;95503.84;4968559;28;19916;-56
2023/06/06 10:25:40;;;;;;;;;;;33.70;29.30;;;24.42;35.02;95515.78;4974001;28;19917;-56
2023/06/06 10:28:26;;;;;;;;;;;33.50;29.20;;;25.46;34.10;95523.34;4968947;28;19914;-56
2023/06/06 10:30:58;;;;;;;;;;;33.50;29.30;;;25.70;35.12;95513.25;4969223;28;20262;-56
2023/06/06 10:33:53;;;;;;;;;;;33.50;29.30;;;25.99;36.12;95509.09;4981322;28;19913;-53
2023/06/06 10:36:19;;;;;;;;;;;33.60;29.40;;;25.86;35.52;95513.19;4983494;28;19960;-52
2023/06/06 10:39:20;;;;;;;;;;;33.80;29.40;;;26.07;34.38;95511.59;4965441;28;19973;-53
2023/06/06 10:41:59;;;;;;;;;;;33.90;29.30;;;26.52;35.13;95511.88;4987448;28;19913;-53
2023/06/06 10:44:53;;;;;;;;;;;34.00;29.20;;;26.34;35.51;95511.56;4975412;28;19933;-52
2023/06/06 10:47:28;;;;;;;;;;;34.20;29.20;;;26.63;34.79;95507.34;4965763;28;19910;-50
2023/06/06 10:50:12;;;;;;;;;;;34.30;29.00;;;26.93;33.24;95507.34;4963843;28;19921;-49
2023/06/06 10:52:54;;;;;;;;;;;34.50;29.00;;;27.23;34.72;95506.53;4970939;28;19909;-52
2023/06/06 10:55:20;;;;;;;;;;;34.70;28.80;;;27.30;35.10;95506.63;4986619;28;19917;-54
2023/06/06 10:57:53;;;;;;;;;;;34.80;28.60;;;27.43;34.55;95513.41;4973592;28;20746;-54
2023/06/06 11:00:25;;;;;;;;;;;35.00;28.50;;;27.21;35.48;95511.59;4970779;28;20284;-56
2023/06/06 11:02:55;;;;;;;;;;;35.00;28.40;;;27.53;34.39;95511.16;4983236;28;19913;-55
2023/06/06 11:05:22;;;;;;;;;;;35.10;28.40;;;27.93;33.17;95502.16;4975014;28;19910;-56
2023/06/06 11:07:52;;;;;;;;;;;35.20;28.30;;;27.60;32.85;95503.78;4987782;28;20356;-51
2023/06/06 11:10:21;;;;;;;;;;;35.40;28.30;;;26.59;33.08;95498.31;4971723;28;19910;-55
2023/06/06 11:12:51;;;;;;;;;;;35.50;28.20;;;26.41;34.35;95506.22;4965402;28;19913;-54
2023/06/06 11:15:32;;;;;;;;;;;35.50;28.00;;;26.54;32.99;95501.34;4973067;28;19914;-56
2023/06/06 11:18:04;;;;;;;;;;;35.40;27.90;;;26.71;33.65;95508.22;4968051;28;19918;-56
2023/06/06 11:20:42;;;;;;;;;;;35.40;27.90;;;26.73;35.01;95498.50;4972657;28;20009;-56
2023/06/06 11:23:11;;;;;;;;;;;35.40;27.90;;;27.02;33.28;95496.13;4973790;28;19910;-53
2023/06/06 11:25:37;;;;;;;;;;;35.60;27.90;;;27.35;33.16;95500.81;4970994;28;20016;-55